createdAt,value
2024-04-30T00:00:17.814Z,609.00
2024-04-30T00:01:17.866Z,604.00
2024-04-30T00:02:17.892Z,611.00
2024-04-30T00:03:17.986Z,605.00
2024-04-30T00:04:18.108Z,609.00
2024-04-30T00:05:18.118Z,609.00
2024-04-30T00:06:18.113Z,613.00
2024-04-30T00:07:18.170Z,614.00
2024-04-30T00:08:18.181Z,611.00
2024-04-30T00:09:18.223Z,608.00
2024-04-30T00:10:18.368Z,614.00
2024-04-30T00:11:18.314Z,616.00
2024-04-30T00:12:18.339Z,621.00
2024-04-30T00:13:18.650Z,623.00
2024-04-30T00:14:18.461Z,628.00
2024-04-30T00:15:19.163Z,620.00
2024-04-30T00:16:18.682Z,617.00
2024-04-30T00:17:18.607Z,615.00
2024-04-30T00:18:18.662Z,618.00
2024-04-30T00:19:18.797Z,620.00
2024-04-30T00:20:18.820Z,621.00
2024-04-30T00:21:18.822Z,618.00
2024-04-30T00:22:18.892Z,613.00
2024-04-30T00:23:18.920Z,611.00
2024-04-30T00:24:18.942Z,612.00
2024-04-30T00:25:18.987Z,608.00
2024-04-30T00:26:19.017Z,606.00
2024-04-30T00:27:19.105Z,608.00
2024-04-30T00:28:19.224Z,605.00
2024-04-30T00:29:19.157Z,607.00
2024-04-30T00:30:19.182Z,603.00
2024-04-30T00:31:19.268Z,603.00
2024-04-30T00:32:19.327Z,612.00
2024-04-30T00:33:19.387Z,605.00
2024-04-30T00:34:19.308Z,600.00
2024-04-30T00:35:19.300Z,601.00
2024-04-30T00:36:19.346Z,601.00
2024-04-30T00:37:19.444Z,602.00
2024-04-30T00:38:19.395Z,601.00
2024-04-30T00:39:19.426Z,603.00
2024-04-30T00:40:19.444Z,607.00
2024-04-30T00:41:19.440Z,610.00
2024-04-30T00:42:19.474Z,619.00
2024-04-30T00:43:19.702Z,614.00
2024-04-30T00:44:19.556Z,614.00
2024-04-30T00:45:19.704Z,614.00
2024-04-30T00:46:19.768Z,610.00
2024-04-30T00:47:19.722Z,607.00
2024-04-30T00:48:19.766Z,603.00
2024-04-30T00:49:19.801Z,604.00
2024-04-30T00:50:19.803Z,604.00
2024-04-30T00:51:19.825Z,603.00
2024-04-30T00:52:19.957Z,603.00
2024-04-30T00:53:20.175Z,608.00
2024-04-30T00:54:19.948Z,614.00
2024-04-30T00:55:20.034Z,615.00
2024-04-30T00:56:19.990Z,614.00
2024-04-30T00:57:20.036Z,609.00
2024-04-30T00:58:20.132Z,610.00
2024-04-30T00:59:20.114Z,615.00
2024-04-30T01:00:20.144Z,611.00
2024-04-30T01:01:20.251Z,603.00
2024-04-30T01:02:20.269Z,604.00
2024-04-30T01:03:20.303Z,601.00
2024-04-30T01:04:20.384Z,605.00
2024-04-30T01:05:20.352Z,604.00
2024-04-30T01:06:20.388Z,602.00
2024-04-30T01:07:20.415Z,603.00
2024-04-30T01:08:20.663Z,603.00
2024-04-30T01:09:20.435Z,604.00
2024-04-30T01:10:20.554Z,607.00
2024-04-30T01:11:20.564Z,609.00
2024-04-30T01:12:20.540Z,610.00
2024-04-30T01:13:20.595Z,607.00
2024-04-30T01:14:20.578Z,608.00
2024-04-30T01:15:20.594Z,607.00
2024-04-30T01:16:20.698Z,604.00
2024-04-30T01:17:20.794Z,600.00
2024-04-30T01:18:21.169Z,602.00
2024-04-30T01:19:20.812Z,603.00
2024-04-30T01:20:20.795Z,600.00
2024-04-30T01:21:20.820Z,599.00
2024-04-30T01:22:20.888Z,604.00
2024-04-30T01:23:20.860Z,602.00
2024-04-30T01:24:20.911Z,602.00
2024-04-30T01:25:20.964Z,607.00
2024-04-30T01:26:20.954Z,605.00
2024-04-30T01:27:20.990Z,611.00
2024-04-30T01:28:21.053Z,615.00
2024-04-30T01:29:21.047Z,619.00
2024-04-30T01:30:21.056Z,616.00
2024-04-30T01:31:21.070Z,621.00
2024-04-30T01:32:21.128Z,622.00
2024-04-30T01:33:21.172Z,622.00
2024-04-30T01:34:21.158Z,619.00
2024-04-30T01:35:21.159Z,618.00
2024-04-30T01:36:21.189Z,621.00
2024-04-30T01:37:21.242Z,626.00
2024-04-30T01:38:21.229Z,624.00
2024-04-30T01:39:21.242Z,626.00
2024-04-30T01:40:21.260Z,628.00
2024-04-30T01:41:21.317Z,627.00
2024-04-30T01:42:21.361Z,626.00
2024-04-30T01:43:21.698Z,627.00
2024-04-30T01:44:21.401Z,621.00
2024-04-30T01:45:21.465Z,624.00
2024-04-30T01:46:21.493Z,625.00
2024-04-30T01:47:21.540Z,621.00
2024-04-30T01:48:21.588Z,623.00
2024-04-30T01:49:21.560Z,624.00
2024-04-30T01:50:21.562Z,620.00
2024-04-30T01:51:21.570Z,623.00
2024-04-30T01:52:21.618Z,620.00
2024-04-30T01:53:21.584Z,617.00
2024-04-30T01:54:21.610Z,613.00
2024-04-30T01:55:21.727Z,614.00
2024-04-30T01:56:21.685Z,605.00
2024-04-30T01:57:21.691Z,604.00
2024-04-30T01:58:22.230Z,606.00
2024-04-30T01:59:21.691Z,600.00
2024-04-30T02:00:21.719Z,602.00
2024-04-30T02:01:21.840Z,601.00
2024-04-30T02:02:21.744Z,602.00
2024-04-30T02:03:21.750Z,607.00
2024-04-30T02:04:21.943Z,609.00
2024-04-30T02:05:25.307Z,610.00
2024-04-30T02:06:21.908Z,610.00
2024-04-30T02:07:21.955Z,611.00
2024-04-30T02:08:21.937Z,614.00
2024-04-30T02:09:21.955Z,616.00
2024-04-30T02:10:21.998Z,620.00
2024-04-30T02:11:21.968Z,621.00
2024-04-30T02:12:21.922Z,618.00
2024-04-30T02:13:22.228Z,618.00
2024-04-30T02:14:21.931Z,615.00
2024-04-30T02:15:21.939Z,612.00
2024-04-30T02:16:21.944Z,608.00
2024-04-30T02:17:21.972Z,608.00
2024-04-30T02:18:22.179Z,605.00
2024-04-30T02:19:22.011Z,604.00
2024-04-30T02:20:21.963Z,602.00
2024-04-30T02:21:21.951Z,605.00
2024-04-30T02:22:21.989Z,603.00
2024-04-30T02:23:21.966Z,605.00
2024-04-30T02:24:21.965Z,600.00
2024-04-30T02:25:21.984Z,601.00
2024-04-30T02:26:21.984Z,600.00
2024-04-30T02:27:21.947Z,605.00
2024-04-30T02:28:22.212Z,605.00
2024-04-30T02:29:21.990Z,606.00
2024-04-30T02:30:21.943Z,606.00
2024-04-30T02:31:21.979Z,610.00
2024-04-30T02:32:21.988Z,611.00
2024-04-30T02:33:22.035Z,612.00
2024-04-30T02:34:21.994Z,614.00
2024-04-30T02:35:21.959Z,614.00
2024-04-30T02:36:21.957Z,613.00
2024-04-30T02:37:22.018Z,616.00
2024-04-30T02:38:22.210Z,621.00
2024-04-30T02:39:21.969Z,620.00
2024-04-30T02:40:21.968Z,620.00
2024-04-30T02:41:21.959Z,617.00
2024-04-30T02:42:21.974Z,619.00
2024-04-30T02:43:22.003Z,619.00
2024-04-30T02:44:21.986Z,616.00
2024-04-30T02:45:21.965Z,613.00
2024-04-30T02:46:22.001Z,614.00
2024-04-30T02:47:22.196Z,612.00
2024-04-30T02:48:22.215Z,611.00
2024-04-30T02:49:22.031Z,610.00
2024-04-30T02:50:21.957Z,610.00
2024-04-30T02:51:21.984Z,607.00
2024-04-30T02:52:22.002Z,607.00
2024-04-30T02:53:21.970Z,606.00
2024-04-30T02:54:21.999Z,605.00
2024-04-30T02:55:22.030Z,605.00
2024-04-30T02:56:21.977Z,608.00
2024-04-30T02:57:22.045Z,607.00
2024-04-30T02:58:22.244Z,609.00
2024-04-30T02:59:21.981Z,614.00
2024-04-30T03:00:21.978Z,616.00
2024-04-30T03:01:22.011Z,615.00
2024-04-30T03:02:22.013Z,617.00
2024-04-30T03:03:21.988Z,615.00
2024-04-30T03:04:22.060Z,613.00
2024-04-30T03:05:21.983Z,616.00
2024-04-30T03:06:22.019Z,617.00
2024-04-30T03:07:21.995Z,617.00
2024-04-30T03:08:22.032Z,612.00
2024-04-30T03:09:22.047Z,612.00
2024-04-30T03:10:22.091Z,605.00
2024-04-30T03:11:22.104Z,607.00
2024-04-30T03:12:22.159Z,605.00
2024-04-30T03:13:22.208Z,602.00
2024-04-30T03:14:22.209Z,600.00
2024-04-30T03:15:22.206Z,602.00
2024-04-30T03:16:22.270Z,601.00
2024-04-30T03:17:22.415Z,602.00
2024-04-30T03:18:22.356Z,602.00
2024-04-30T03:19:22.404Z,602.00
2024-04-30T03:20:22.407Z,608.00
2024-04-30T03:21:22.421Z,603.00
2024-04-30T03:22:22.488Z,605.00
2024-04-30T03:23:22.699Z,609.00
2024-04-30T03:24:22.507Z,611.00
2024-04-30T03:25:22.590Z,609.00
2024-04-30T03:26:22.603Z,612.00
2024-04-30T03:27:22.624Z,613.00
2024-04-30T03:28:22.666Z,611.00
2024-04-30T03:29:22.682Z,610.00
2024-04-30T03:30:22.710Z,610.00
2024-04-30T03:31:22.785Z,612.00
2024-04-30T03:32:22.814Z,612.00
2024-04-30T03:33:22.928Z,611.00
2024-04-30T03:34:22.869Z,612.00
2024-04-30T03:35:25.157Z,612.00
2024-04-30T03:36:22.877Z,612.00
2024-04-30T03:37:22.891Z,612.00
2024-04-30T03:38:22.875Z,612.00
2024-04-30T03:39:22.879Z,609.00
2024-04-30T03:40:22.942Z,611.00
2024-04-30T03:41:22.892Z,607.00
2024-04-30T03:42:22.915Z,609.00
2024-04-30T03:43:22.891Z,611.00
2024-04-30T03:44:22.921Z,613.00
2024-04-30T03:45:22.896Z,610.00
2024-04-30T03:46:22.928Z,612.00
2024-04-30T03:47:22.982Z,616.00
2024-04-30T03:48:22.904Z,617.00
2024-04-30T03:49:22.895Z,617.00
2024-04-30T03:50:22.888Z,618.00
2024-04-30T03:51:22.911Z,619.00
2024-04-30T03:52:22.924Z,621.00
2024-04-30T03:53:23.254Z,621.00
2024-04-30T03:54:22.905Z,624.00
2024-04-30T03:55:22.973Z,625.00
2024-04-30T03:56:22.962Z,626.00
2024-04-30T03:57:22.900Z,627.00
2024-04-30T03:58:22.925Z,626.00
2024-04-30T03:59:22.920Z,624.00
2024-04-30T04:00:22.969Z,624.00
2024-04-30T04:01:22.927Z,624.00
2024-04-30T04:02:22.972Z,622.00
2024-04-30T04:03:22.913Z,623.00
2024-04-30T04:04:23.096Z,618.00
2024-04-30T04:05:22.909Z,619.00
2024-04-30T04:06:22.896Z,617.00
2024-04-30T04:07:22.929Z,615.00
2024-04-30T04:08:22.931Z,617.00
2024-04-30T04:09:22.934Z,618.00
2024-04-30T04:10:22.983Z,618.00
2024-04-30T04:11:22.924Z,621.00
2024-04-30T04:12:22.923Z,620.00
2024-04-30T04:13:23.358Z,618.00
2024-04-30T04:14:23.007Z,615.00
2024-04-30T04:15:23.069Z,616.00
2024-04-30T04:16:23.149Z,615.00
2024-04-30T04:17:23.282Z,616.00
2024-04-30T04:18:23.255Z,618.00
2024-04-30T04:19:23.335Z,618.00
2024-04-30T04:20:23.282Z,616.00
2024-04-30T04:21:24.234Z,620.00
2024-04-30T04:22:23.406Z,622.00
2024-04-30T04:23:23.720Z,621.00
2024-04-30T04:24:23.428Z,619.00
2024-04-30T04:25:23.499Z,617.00
2024-04-30T04:26:23.531Z,619.00
2024-04-30T04:27:23.589Z,617.00
2024-04-30T04:28:23.647Z,620.00
2024-04-30T04:29:23.653Z,618.00
2024-04-30T04:30:23.713Z,620.00
2024-04-30T04:31:23.758Z,619.00
2024-04-30T04:32:23.881Z,622.00
2024-04-30T04:33:23.876Z,623.00
2024-04-30T04:34:23.923Z,626.00
2024-04-30T04:35:23.932Z,633.00
2024-04-30T04:36:23.969Z,634.00
2024-04-30T04:37:27.119Z,635.00
2024-04-30T04:38:24.238Z,631.00
2024-04-30T04:39:24.035Z,627.00
2024-04-30T04:40:24.070Z,624.00
2024-04-30T04:41:24.025Z,617.00
2024-04-30T04:42:24.043Z,620.00
2024-04-30T04:43:24.029Z,623.00
2024-04-30T04:44:24.027Z,620.00
2024-04-30T04:45:24.035Z,622.00
2024-04-30T04:46:24.087Z,617.00
2024-04-30T04:47:32.019Z,600.00
2024-04-30T04:48:32.082Z,600.00
2024-04-30T04:49:32.134Z,600.00
2024-04-30T04:50:32.083Z,600.00
2024-04-30T04:51:32.117Z,600.00
2024-04-30T04:52:32.140Z,600.00
2024-04-30T04:53:32.564Z,602.00
2024-04-30T04:54:32.097Z,606.00
2024-04-30T04:55:32.110Z,607.00
2024-04-30T04:56:32.110Z,605.00
2024-04-30T04:57:32.148Z,603.00
2024-04-30T04:58:32.158Z,602.00
2024-04-30T04:59:32.118Z,604.00
2024-04-30T05:00:32.134Z,606.00
2024-04-30T05:01:32.131Z,604.00
2024-04-30T05:02:32.138Z,606.00
2024-04-30T05:03:32.166Z,607.00
2024-04-30T05:04:32.236Z,611.00
2024-04-30T05:05:32.111Z,615.00
2024-04-30T05:06:32.116Z,619.00
2024-04-30T05:07:32.122Z,625.00
2024-04-30T05:08:32.133Z,628.00
2024-04-30T05:09:32.117Z,632.00
2024-04-30T05:10:32.140Z,636.00
2024-04-30T05:11:32.146Z,633.00
2024-04-30T05:12:32.103Z,633.00
2024-04-30T05:13:32.214Z,633.00
2024-04-30T05:14:32.108Z,632.00
2024-04-30T05:15:32.141Z,633.00
2024-04-30T05:16:32.126Z,633.00
2024-04-30T05:17:32.212Z,634.00
2024-04-30T05:18:32.112Z,632.00
2024-04-30T05:19:32.180Z,631.00
2024-04-30T05:20:32.163Z,630.00
2024-04-30T05:21:32.155Z,634.00
2024-04-30T05:22:32.131Z,632.00
2024-04-30T05:23:32.139Z,634.00
2024-04-30T05:24:32.143Z,634.00
2024-04-30T05:25:32.165Z,633.00
2024-04-30T05:26:32.146Z,633.00
2024-04-30T05:27:32.127Z,636.00
2024-04-30T05:28:32.592Z,637.00
2024-04-30T05:29:32.120Z,637.00
2024-04-30T05:30:32.148Z,640.00
2024-04-30T05:31:32.164Z,645.00
2024-04-30T05:32:32.199Z,642.00
2024-04-30T05:33:32.202Z,644.00
2024-04-30T05:34:32.224Z,644.00
2024-04-30T05:35:32.143Z,649.00
2024-04-30T05:36:32.154Z,652.00
2024-04-30T05:37:32.234Z,655.00
2024-04-30T05:38:32.180Z,662.00
2024-04-30T05:39:32.188Z,663.00
2024-04-30T05:40:32.186Z,665.00
2024-04-30T05:41:32.177Z,674.00
2024-04-30T05:42:32.174Z,671.00
2024-04-30T05:43:32.177Z,700.00
2024-04-30T05:44:32.171Z,704.00
2024-04-30T05:45:32.160Z,716.00
2024-04-30T05:46:32.312Z,736.00
2024-04-30T05:47:32.158Z,736.00
2024-04-30T05:48:32.145Z,736.00
2024-04-30T05:49:32.181Z,761.00
2024-04-30T05:50:32.175Z,769.00
2024-04-30T05:51:32.168Z,780.00
2024-04-30T05:52:32.185Z,782.00
2024-04-30T05:53:32.182Z,795.00
2024-04-30T05:54:32.167Z,819.00
2024-04-30T05:55:32.201Z,822.00
2024-04-30T05:56:32.201Z,835.00
2024-04-30T05:57:32.151Z,849.00
2024-04-30T05:58:32.280Z,854.00
2024-04-30T05:59:32.286Z,864.00
2024-04-30T06:00:32.401Z,865.00
2024-04-30T06:01:32.530Z,883.00
2024-04-30T06:02:32.499Z,884.00
2024-04-30T06:03:33.035Z,891.00
2024-04-30T06:04:32.730Z,912.00
2024-04-30T06:05:32.770Z,925.00
2024-04-30T06:06:32.758Z,922.00
2024-04-30T06:07:32.831Z,933.00
2024-04-30T06:08:32.833Z,928.00
2024-04-30T06:09:32.913Z,913.00
2024-04-30T06:10:33.023Z,926.00
2024-04-30T06:11:33.086Z,917.00
2024-04-30T06:12:33.104Z,913.00
2024-04-30T06:13:33.190Z,908.00
2024-04-30T06:14:33.209Z,916.00
2024-04-30T06:15:33.276Z,918.00
2024-04-30T06:16:33.439Z,907.00
2024-04-30T06:17:33.423Z,903.00
2024-04-30T06:18:33.558Z,904.00
2024-04-30T06:19:33.533Z,890.00
2024-04-30T06:20:33.552Z,899.00
2024-04-30T06:21:38.094Z,894.00
2024-04-30T06:22:34.699Z,894.00
2024-04-30T06:23:33.601Z,894.00
2024-04-30T06:24:33.608Z,895.00
2024-04-30T06:25:33.647Z,887.00
2024-04-30T06:26:33.662Z,877.00
2024-04-30T06:27:33.599Z,887.00
2024-04-30T06:28:35.067Z,889.00
2024-04-30T06:29:33.611Z,883.00
2024-04-30T06:30:33.619Z,884.00
2024-04-30T06:31:33.665Z,889.00
2024-04-30T06:32:33.708Z,883.00
2024-04-30T06:33:34.145Z,888.00
2024-04-30T06:34:33.808Z,891.00
2024-04-30T06:35:33.805Z,898.00
2024-04-30T06:36:33.868Z,907.00
2024-04-30T06:37:33.978Z,910.00
2024-04-30T06:38:33.994Z,906.00
2024-04-30T06:39:34.158Z,906.00
2024-04-30T06:40:34.146Z,919.00
2024-04-30T06:41:34.162Z,920.00
2024-04-30T06:42:34.232Z,918.00
2024-04-30T06:43:34.296Z,917.00
2024-04-30T06:44:34.323Z,914.00
2024-04-30T06:45:34.419Z,920.00
2024-04-30T06:46:34.583Z,914.00
2024-04-30T06:47:34.630Z,892.00
2024-04-30T06:48:34.837Z,886.00
2024-04-30T06:49:34.692Z,878.00
2024-04-30T06:50:34.739Z,881.00
2024-04-30T06:51:34.855Z,835.00
2024-04-30T06:52:34.915Z,813.00
2024-04-30T06:53:35.010Z,790.00
2024-04-30T06:54:34.978Z,746.00
2024-04-30T06:55:35.093Z,726.00
2024-04-30T06:56:35.046Z,696.00
2024-04-30T06:57:35.103Z,668.00
2024-04-30T06:58:35.310Z,648.00
2024-04-30T06:59:35.203Z,638.00
2024-04-30T07:00:35.280Z,645.00
2024-04-30T07:01:35.306Z,654.00
2024-04-30T07:02:35.344Z,659.00
2024-04-30T07:03:35.324Z,662.00
2024-04-30T07:04:35.433Z,667.00
2024-04-30T07:05:35.333Z,664.00
2024-04-30T07:06:35.398Z,678.00
2024-04-30T07:07:35.403Z,682.00
2024-04-30T07:08:35.348Z,678.00
2024-04-30T07:09:35.433Z,678.00
2024-04-30T07:10:35.424Z,684.00
2024-04-30T07:11:35.492Z,694.00
2024-04-30T07:12:35.409Z,702.00
2024-04-30T07:13:35.561Z,693.00
2024-04-30T07:14:35.475Z,695.00
2024-04-30T07:15:35.545Z,713.00
2024-04-30T07:16:35.659Z,720.00
2024-04-30T07:17:35.759Z,738.00
2024-04-30T07:18:35.924Z,751.00
2024-04-30T07:19:36.021Z,757.00
2024-04-30T07:20:35.898Z,774.00
2024-04-30T07:21:35.974Z,797.00
2024-04-30T07:22:36.156Z,821.00
2024-04-30T07:23:36.058Z,837.00
2024-04-30T07:24:36.122Z,857.00
2024-04-30T07:25:36.210Z,870.00
2024-04-30T07:26:36.192Z,883.00
2024-04-30T07:27:36.231Z,897.00
2024-04-30T07:28:36.329Z,916.00
2024-04-30T07:29:36.313Z,946.00
2024-04-30T07:30:36.354Z,962.00
2024-04-30T07:31:38.991Z,969.00
2024-04-30T07:32:36.480Z,987.00
2024-04-30T07:33:36.577Z,1007.00
2024-04-30T07:34:36.468Z,1029.00
2024-04-30T07:35:36.411Z,1042.00
2024-04-30T07:36:36.413Z,1066.00
2024-04-30T07:37:36.598Z,1083.00
2024-04-30T07:38:36.540Z,1095.00
2024-04-30T07:39:36.447Z,1110.00
2024-04-30T07:40:36.431Z,1124.00
2024-04-30T07:41:36.415Z,1139.00
2024-04-30T07:42:36.406Z,1138.00
2024-04-30T07:43:36.742Z,1158.00
2024-04-30T07:44:36.409Z,1173.00
2024-04-30T07:45:36.435Z,1186.00
2024-04-30T07:46:36.537Z,1200.00
2024-04-30T07:47:36.492Z,1195.00
2024-04-30T07:48:36.605Z,1194.00
2024-04-30T07:49:36.426Z,1206.00
2024-04-30T07:50:36.397Z,1219.00
2024-04-30T07:51:36.414Z,1233.00
2024-04-30T07:52:36.502Z,1216.00
2024-04-30T07:53:36.562Z,1222.00
2024-04-30T07:54:36.424Z,1230.00
2024-04-30T07:55:36.478Z,1239.00
2024-04-30T07:56:36.417Z,1250.00
2024-04-30T07:57:36.415Z,1257.00
2024-04-30T07:58:36.670Z,1267.00
2024-04-30T07:59:36.465Z,1264.00
2024-04-30T08:00:36.481Z,1280.00
2024-04-30T08:01:36.451Z,1276.00
2024-04-30T08:02:36.464Z,1284.00
2024-04-30T08:03:36.587Z,1290.00
2024-04-30T08:04:36.470Z,1308.00
2024-04-30T08:05:42.778Z,1306.00
2024-04-30T08:06:37.467Z,1302.00
2024-04-30T08:07:36.563Z,1283.00
2024-04-30T08:08:36.473Z,1268.00
2024-04-30T08:09:36.553Z,1257.00
2024-04-30T08:10:36.503Z,1262.00
2024-04-30T08:11:36.547Z,1248.00
2024-04-30T08:12:36.438Z,1244.00
2024-04-30T08:13:36.490Z,1227.00
2024-04-30T08:14:36.864Z,1207.00
2024-04-30T08:15:36.524Z,1176.00
2024-04-30T08:16:36.613Z,1165.00
2024-04-30T08:17:36.795Z,1138.00
2024-04-30T08:18:36.640Z,1111.00
2024-04-30T08:19:36.945Z,1116.00
2024-04-30T08:20:36.755Z,1094.00
2024-04-30T08:21:36.817Z,1092.00
2024-04-30T08:22:36.937Z,1110.00
2024-04-30T08:23:36.846Z,1155.00
2024-04-30T08:24:36.941Z,1165.00
2024-04-30T08:25:37.034Z,1190.00
2024-04-30T08:26:36.991Z,1188.00
2024-04-30T08:27:37.066Z,1166.00
2024-04-30T08:28:37.181Z,1142.00
2024-04-30T08:29:37.590Z,1170.00
2024-04-30T08:30:37.182Z,1198.00
2024-04-30T08:31:37.299Z,1227.00
2024-04-30T08:32:37.331Z,1232.00
2024-04-30T08:33:37.321Z,1232.00
2024-04-30T08:34:37.372Z,1257.00
2024-04-30T08:35:37.340Z,1290.00
2024-04-30T08:36:37.382Z,1318.00
2024-04-30T08:37:43.743Z,1352.00
2024-04-30T08:38:38.415Z,1353.00
2024-04-30T08:39:37.432Z,1362.00
2024-04-30T08:40:37.493Z,1376.00
2024-04-30T08:41:37.410Z,1404.00
2024-04-30T08:42:37.416Z,1410.00
2024-04-30T08:43:37.586Z,1427.00
2024-04-30T08:44:37.580Z,1433.00
2024-04-30T08:45:37.395Z,1378.00
2024-04-30T08:46:37.438Z,1375.00
2024-04-30T08:47:37.542Z,1398.00
2024-04-30T08:48:37.399Z,1318.00
2024-04-30T08:49:43.112Z,1277.00
2024-04-30T08:50:38.475Z,1223.00
2024-04-30T08:51:37.445Z,1200.00
2024-04-30T08:52:37.466Z,1189.00
2024-04-30T08:53:37.448Z,1175.00
2024-04-30T08:54:37.465Z,1148.00
2024-04-30T08:55:37.470Z,1096.00
2024-04-30T08:56:37.425Z,1112.00
2024-04-30T08:57:37.440Z,1115.00
2024-04-30T08:58:37.509Z,1130.00
2024-04-30T08:59:37.436Z,1161.00
2024-04-30T09:00:37.561Z,1199.00
2024-04-30T09:01:37.547Z,1207.00
2024-04-30T09:02:37.544Z,1244.00
2024-04-30T09:03:37.712Z,1180.00
2024-04-30T09:04:38.097Z,1186.00
2024-04-30T09:05:37.648Z,1159.00
2024-04-30T09:06:37.694Z,1175.00
2024-04-30T09:07:37.816Z,1196.00
2024-04-30T09:08:37.765Z,1226.00
2024-04-30T09:09:37.772Z,1237.00
2024-04-30T09:10:37.852Z,1267.00
2024-04-30T09:11:37.852Z,1295.00
2024-04-30T09:12:37.878Z,1270.00
2024-04-30T09:13:38.109Z,1285.00
2024-04-30T09:14:37.949Z,1304.00
2024-04-30T09:15:37.953Z,1327.00
2024-04-30T09:16:38.649Z,1343.00
2024-04-30T09:17:38.076Z,1345.00
2024-04-30T09:18:38.057Z,1272.00
2024-04-30T09:19:38.171Z,1254.00
2024-04-30T09:20:38.135Z,1215.00
2024-04-30T09:21:38.165Z,1193.00
2024-04-30T09:22:38.278Z,1120.00
2024-04-30T09:23:38.221Z,1106.00
2024-04-30T09:24:38.227Z,1083.00
2024-04-30T09:25:38.440Z,1090.00
2024-04-30T09:26:38.305Z,1097.00
2024-04-30T09:27:38.338Z,1072.00
2024-04-30T09:28:38.449Z,1080.00
2024-04-30T09:29:40.669Z,1080.00
2024-04-30T09:30:38.522Z,1089.00
2024-04-30T09:31:38.551Z,1067.00
2024-04-30T09:32:38.461Z,1074.00
2024-04-30T09:33:38.623Z,1088.00
2024-04-30T09:34:38.551Z,1101.00
2024-04-30T09:35:38.434Z,1112.00
2024-04-30T09:36:38.420Z,1132.00
2024-04-30T09:37:38.522Z,1157.00
2024-04-30T09:38:38.426Z,1121.00
2024-04-30T09:39:38.580Z,1105.00
2024-04-30T09:40:38.499Z,1081.00
2024-04-30T09:41:38.414Z,1108.00
2024-04-30T09:42:41.095Z,1116.00
2024-04-30T09:43:38.549Z,1117.00
2024-04-30T09:44:38.423Z,1119.00
2024-04-30T09:45:38.438Z,1130.00
2024-04-30T09:46:38.576Z,1137.00
2024-04-30T09:47:38.446Z,1181.00
2024-04-30T09:48:38.461Z,1176.00
2024-04-30T09:49:38.459Z,1144.00
2024-04-30T09:50:38.429Z,1168.00
2024-04-30T09:51:38.430Z,1186.00
2024-04-30T09:52:38.531Z,1205.00
2024-04-30T09:53:38.433Z,1216.00
2024-04-30T09:54:38.432Z,1207.00
2024-04-30T09:55:38.590Z,1189.00
2024-04-30T09:56:38.458Z,1200.00
2024-04-30T09:57:38.470Z,1200.00
2024-04-30T09:58:38.644Z,1184.00
2024-04-30T09:59:38.581Z,1191.00
2024-04-30T10:00:38.514Z,1177.00
2024-04-30T10:01:38.558Z,1150.00
2024-04-30T10:02:38.542Z,1141.00
2024-04-30T10:03:38.459Z,1108.00
2024-04-30T10:04:38.635Z,1093.00
2024-04-30T10:05:38.506Z,1097.00
2024-04-30T10:06:38.494Z,1096.00
2024-04-30T10:07:38.576Z,1043.00
2024-04-30T10:08:38.491Z,963.00
2024-04-30T10:09:38.627Z,906.00
2024-04-30T10:10:38.571Z,846.00
2024-04-30T10:11:38.516Z,826.00
2024-04-30T10:12:38.482Z,804.00
2024-04-30T10:13:38.550Z,805.00
2024-04-30T10:14:38.612Z,807.00
2024-04-30T10:15:38.483Z,818.00
2024-04-30T10:16:38.657Z,847.00
2024-04-30T10:17:38.610Z,877.00
2024-04-30T10:18:38.476Z,901.00
2024-04-30T10:19:38.552Z,880.00
2024-04-30T10:20:38.484Z,879.00
2024-04-30T10:21:38.532Z,857.00
2024-04-30T10:22:38.579Z,859.00
2024-04-30T10:23:38.502Z,878.00
2024-04-30T10:24:38.482Z,893.00
2024-04-30T10:25:38.546Z,906.00
2024-04-30T10:26:38.482Z,914.00
2024-04-30T10:27:38.484Z,913.00
2024-04-30T10:28:38.618Z,917.00
2024-04-30T10:29:38.506Z,907.00
2024-04-30T10:30:38.491Z,912.00
2024-04-30T10:31:38.589Z,919.00
2024-04-30T10:32:38.517Z,937.00
2024-04-30T10:33:38.591Z,958.00
2024-04-30T10:34:38.680Z,983.00
2024-04-30T10:35:38.492Z,979.00
2024-04-30T10:36:38.489Z,1005.00
2024-04-30T10:37:38.660Z,1005.00
2024-04-30T10:38:38.510Z,1056.00
2024-04-30T10:39:38.514Z,1082.00
2024-04-30T10:40:38.720Z,1124.00
2024-04-30T10:41:38.507Z,1250.00
2024-04-30T10:42:38.511Z,1226.00
2024-04-30T10:43:38.617Z,1212.00
2024-04-30T10:44:38.604Z,1131.00
2024-04-30T10:45:38.494Z,1085.00
2024-04-30T10:46:38.567Z,1017.00
2024-04-30T10:47:38.591Z,1017.00
2024-04-30T10:48:38.534Z,1038.00
2024-04-30T10:49:38.556Z,1038.00
2024-04-30T10:50:38.510Z,993.00
2024-04-30T10:51:38.505Z,996.00
2024-04-30T10:52:38.544Z,972.00
2024-04-30T10:53:38.538Z,980.00
2024-04-30T10:54:38.628Z,989.00
2024-04-30T10:55:38.584Z,1002.00
2024-04-30T10:56:38.534Z,957.00
2024-04-30T10:57:38.605Z,956.00
2024-04-30T10:58:38.703Z,942.00
2024-04-30T10:59:38.771Z,867.00
2024-04-30T11:00:38.782Z,854.00
2024-04-30T11:01:38.919Z,850.00
2024-04-30T11:02:39.009Z,863.00
2024-04-30T11:03:38.975Z,873.00
2024-04-30T11:04:39.085Z,903.00
2024-04-30T11:05:39.076Z,909.00
2024-04-30T11:06:39.163Z,909.00
2024-04-30T11:07:39.214Z,876.00
2024-04-30T11:08:39.205Z,876.00
2024-04-30T11:09:39.236Z,891.00
2024-04-30T11:10:39.301Z,887.00
2024-04-30T11:11:39.320Z,907.00
2024-04-30T11:12:39.290Z,884.00
2024-04-30T11:13:39.368Z,877.00
2024-04-30T11:14:39.694Z,881.00
2024-04-30T11:15:39.325Z,896.00
2024-04-30T11:16:39.375Z,909.00
2024-04-30T11:17:39.427Z,917.00
2024-04-30T11:18:39.465Z,914.00
2024-04-30T11:19:39.453Z,912.00
2024-04-30T11:20:39.396Z,888.00
2024-04-30T11:21:39.431Z,885.00
2024-04-30T11:22:39.455Z,842.00
2024-04-30T11:23:39.471Z,832.00
2024-04-30T11:24:39.506Z,813.00
2024-04-30T11:25:39.620Z,819.00
2024-04-30T11:26:39.536Z,841.00
2024-04-30T11:27:39.579Z,849.00
2024-04-30T11:28:39.745Z,848.00
2024-04-30T11:29:40.580Z,868.00
2024-04-30T11:30:39.646Z,871.00
2024-04-30T11:31:39.823Z,863.00
2024-04-30T11:32:39.805Z,844.00
2024-04-30T11:33:39.737Z,820.00
2024-04-30T11:34:39.919Z,824.00
2024-04-30T11:35:39.778Z,848.00
2024-04-30T11:36:39.823Z,830.00
2024-04-30T11:37:39.944Z,824.00
2024-04-30T11:38:39.983Z,750.00
2024-04-30T11:39:40.145Z,729.00
2024-04-30T11:40:40.014Z,739.00
2024-04-30T11:41:43.504Z,754.00
2024-04-30T11:42:44.700Z,755.00
2024-04-30T11:43:40.085Z,755.00
2024-04-30T11:44:40.153Z,719.00
2024-04-30T11:45:39.981Z,695.00
2024-04-30T11:46:40.106Z,678.00
2024-04-30T11:47:40.034Z,683.00
2024-04-30T11:48:40.015Z,685.00
2024-04-30T11:49:40.099Z,688.00
2024-04-30T11:50:40.023Z,700.00
2024-04-30T11:51:40.056Z,711.00
2024-04-30T11:52:40.309Z,719.00
2024-04-30T11:53:40.177Z,701.00
2024-04-30T11:54:40.640Z,693.00
2024-04-30T11:55:40.379Z,723.00
2024-04-30T11:56:40.298Z,736.00
2024-04-30T11:57:40.311Z,758.00
2024-04-30T11:58:40.360Z,766.00
2024-04-30T11:59:40.426Z,771.00
2024-04-30T12:00:40.762Z,786.00
2024-04-30T12:01:40.615Z,793.00
2024-04-30T12:02:41.564Z,794.00
2024-04-30T12:03:40.510Z,798.00
2024-04-30T12:04:40.810Z,809.00
2024-04-30T12:05:40.600Z,831.00
2024-04-30T12:06:40.495Z,868.00
2024-04-30T12:07:40.534Z,875.00
2024-04-30T12:08:40.507Z,890.00
2024-04-30T12:09:40.494Z,891.00
2024-04-30T12:10:40.537Z,921.00
2024-04-30T12:11:40.558Z,922.00
2024-04-30T12:12:40.549Z,943.00
2024-04-30T12:13:40.792Z,945.00
2024-04-30T12:14:40.668Z,945.00
2024-04-30T12:15:40.744Z,956.00
2024-04-30T12:16:41.809Z,964.00
2024-04-30T12:17:41.075Z,967.00
2024-04-30T12:18:40.913Z,971.00
2024-04-30T12:19:41.055Z,978.00
2024-04-30T12:20:41.022Z,969.00
2024-04-30T12:21:41.053Z,975.00
2024-04-30T12:22:41.232Z,977.00
2024-04-30T12:23:41.189Z,988.00